PDT,Max TemperatureF,Mean TemperatureF,Min TemperatureF,Max Dew PointF,MeanDew PointF,Min DewpointF,Max Humidity, Mean Humidity, Min Humidity, Max Sea Level PressureIn, Mean Sea Level PressureIn, Min Sea Level PressureIn, Max VisibilityMiles, Mean VisibilityMiles, Min VisibilityMiles, Max Wind SpeedMPH, Mean Wind SpeedMPH, Max Gust SpeedMPH,PrecipitationIn, CloudCover, Events, WindDirDegrees
2013-4-1,64,53,42,46,43,39,87,62,40,30.16,30.13,30.07,10,9,7,12,6,17,0.00,6,,246
2013-4-2,73,62,51,48,46,43,82,55,33,30.09,30.04,29.97,10,8,7,16,4,,0.00,3,,225
2013-4-3,84,68,51,48,40,30,76,36,14,30.09,30.03,29.98,10,9,7,16,3,,0.00,0,,244
2013-4-4,78,66,53,52,46,32,94,53,19,30.11,30.06,30.00,10,6,1,12,3,,0.00,6,,237
2013-4-5,69,62,55,52,49,46,88,64,43,30.09,30.04,29.99,10,6,3,12,3,,0.00,7,,275
2013-4-6,73,63,53,52,48,45,94,58,36,30.07,30.02,29.95,7,5,2,13,3,,0.00,4,,244
2013-4-7,73,62,51,50,48,45,82,60,36,29.96,29.90,29.82,7,6,5,13,2,,0.00,5,,248
2013-4-8,59,55,51,52,45,37,94,70,45,29.70,29.68,29.66,10,8,4,14,5,13,0.00,6,,78
2013-4-9,75,60,44,36,19,9,71,21,8,29.95,29.88,29.84,10,10,10,17,8,23,0.00,0,,302
2013-4-10,82,72,62,21,15,9,18,11,7,30.08,30.02,29.96,10,10,10,21,12,32,0.00,0,,321
2013-4-11,80,63,46,48,33,25,63,30,14,29.96,29.85,29.75,10,10,10,16,5,,0.00,1,,258
2013-4-12,80,66,53,48,44,16,82,47,15,29.87,29.81,29.75,10,6,3,12,3,,0.00,2,,240
2013-4-13,73,62,51,52,50,48,94,68,41,29.92,29.87,29.81,10,5,0,12,2,,0.00,3,,247
2013-4-14,59,56,53,48,46,45,82,71,59,29.88,29.84,29.81,10,7,3,9,3,,0.00,8,,277
2013-4-15,62,56,51,48,47,45,88,69,52,29.90,29.86,29.82,10,7,3,9,3,,0.00,8,,295
2013-4-16,62,55,48,39,35,32,66,47,34,29.94,29.91,29.88,10,9,7,16,5,22,0.00,5,,255
2013-4-17,71,62,53,19,11,5,23,13,8,30.10,30.06,30.02,10,10,10,17,11,29,0.00,0,,335
2013-4-18,77,66,55,10,8,3,15,9,7,30.22,30.16,30.10,10,10,10,21,7,29,0.00,0,,336
2013-4-19,84,65,46,54,18,12,47,14,8,30.18,30.07,29.97,10,10,10,17,2,,0.00,0,,244
2013-4-20,91,71,51,41,29,23,35,17,9,29.96,29.91,29.86,10,10,10,17,5,23,0.00,1,,242
2013-4-21,89,71,53,37,33,28,51,21,12,30.01,29.97,29.92,10,10,7,14,4,18,0.00,0,,237
2013-4-22,82,66,51,50,42,36,77,43,19,30.00,29.94,29.86,10,8,4,16,4,,0.00,0,,256
2013-4-23,82,68,55,48,44,37,77,43,20,29.96,29.90,29.83,10,5,3,15,4,,0.00,2,,248
2013-4-24,69,62,55,50,49,46,82,64,46,29.95,29.92,29.89,10,6,2,17,6,,0.00,6,,254
2013-4-25,69,62,55,46,44,43,67,52,38,30.09,30.05,30.01,10,9,5,12,5,,0.00,5,,256
2013-4-26,82,64,46,46,42,37,87,39,20,30.16,30.12,30.07,10,10,10,14,3,,0.00,0,,242
2013-4-27,89,70,51,48,43,37,71,33,16,30.14,30.06,29.99,10,10,10,14,4,,0.00,0,,251
2013-4-28,89,70,51,52,46,37,76,39,16,30.00,29.92,29.85,10,8,7,10,3,,0.00,0,,259
2013-4-29,87,70,53,54,49,43,94,46,22,29.90,29.84,29.76,10,6,2,14,4,,0.00,0,,244
2013-4-30,75,65,55,55,50,46,88,61,36,29.87,29.84,29.78,10,5,2,16,4,17,0.00,3,,247